sensor_id;sensor_type;location;lat;lon;timestamp;P1;durP1;ratioP1;P2;durP2;ratioP2
57341;SDS011;43175;51.002;18.316;2024-01-30T00:00:39;23.50;;;9.70;;
57341;SDS011;43175;51.002;18.316;2024-01-30T00:03:05;21.30;;;9.20;;
57341;SDS011;43175;51.002;18.316;2024-01-30T00:05:30;19.70;;;8.50;;
57341;SDS011;43175;51.002;18.316;2024-01-30T00:07:56;18.00;;;8.10;;
57341;SDS011;43175;51.002;18.316;2024-01-30T00:10:21;20.70;;;8.70;;
57341;SDS011;43175;51.002;18.316;2024-01-30T00:12:47;18.40;;;8.40;;
57341;SDS011;43175;51.002;18.316;2024-01-30T00:15:12;22.10;;;9.10;;
57341;SDS011;43175;51.002;18.316;2024-01-30T00:17:38;17.80;;;8.20;;
57341;SDS011;43175;51.002;18.316;2024-01-30T00:20:04;18.20;;;8.20;;
57341;SDS011;43175;51.002;18.316;2024-01-30T00:22:31;21.00;;;8.60;;
57341;SDS011;43175;51.002;18.316;2024-01-30T00:24:57;20.70;;;8.40;;
57341;SDS011;43175;51.002;18.316;2024-01-30T00:27:22;22.60;;;8.60;;
57341;SDS011;43175;51.002;18.316;2024-01-30T00:29:48;26.00;;;9.50;;
57341;SDS011;43175;51.002;18.316;2024-01-30T00:32:13;22.80;;;9.40;;
57341;SDS011;43175;51.002;18.316;2024-01-30T00:34:38;24.60;;;10.40;;
57341;SDS011;43175;51.002;18.316;2024-01-30T00:37:04;21.70;;;9.30;;
57341;SDS011;43175;51.002;18.316;2024-01-30T00:39:29;21.30;;;9.00;;
57341;SDS011;43175;51.002;18.316;2024-01-30T00:41:55;20.90;;;8.50;;
57341;SDS011;43175;51.002;18.316;2024-01-30T00:44:20;22.20;;;8.40;;
57341;SDS011;43175;51.002;18.316;2024-01-30T00:46:46;19.10;;;8.50;;
57341;SDS011;43175;51.002;18.316;2024-01-30T00:49:11;19.20;;;8.40;;
57341;SDS011;43175;51.002;18.316;2024-01-30T00:51:37;20.70;;;8.10;;
57341;SDS011;43175;51.002;18.316;2024-01-30T00:54:02;19.40;;;8.40;;
57341;SDS011;43175;51.002;18.316;2024-01-30T00:56:28;17.10;;;7.80;;
57341;SDS011;43175;51.002;18.316;2024-01-30T00:58:53;18.70;;;7.80;;
57341;SDS011;43175;51.002;18.316;2024-01-30T01:01:19;19.20;;;8.50;;
57341;SDS011;43175;51.002;18.316;2024-01-30T01:03:44;21.70;;;7.70;;
57341;SDS011;43175;51.002;18.316;2024-01-30T01:06:10;16.60;;;7.90;;
57341;SDS011;43175;51.002;18.316;2024-01-30T01:08:36;18.00;;;8.40;;
57341;SDS011;43175;51.002;18.316;2024-01-30T01:11:01;19.60;;;8.40;;
57341;SDS011;43175;51.002;18.316;2024-01-30T01:13:28;19.80;;;8.30;;
57341;SDS011;43175;51.002;18.316;2024-01-30T01:15:54;19.90;;;8.40;;
57341;SDS011;43175;51.002;18.316;2024-01-30T01:18:20;19.40;;;7.90;;
57341;SDS011;43175;51.002;18.316;2024-01-30T01:20:48;16.20;;;7.30;;
57341;SDS011;43175;51.002;18.316;2024-01-30T01:23:13;18.40;;;7.70;;
57341;SDS011;43175;51.002;18.316;2024-01-30T01:25:39;17.70;;;7.90;;
57341;SDS011;43175;51.002;18.316;2024-01-30T01:28:05;20.80;;;8.40;;
57341;SDS011;43175;51.002;18.316;2024-01-30T01:30:30;19.60;;;8.50;;
57341;SDS011;43175;51.002;18.316;2024-01-30T01:32:56;18.90;;;8.70;;
57341;SDS011;43175;51.002;18.316;2024-01-30T01:35:23;20.80;;;8.80;;
57341;SDS011;43175;51.002;18.316;2024-01-30T01:37:50;18.90;;;8.40;;
57341;SDS011;43175;51.002;18.316;2024-01-30T01:40:22;19.60;;;8.90;;
57341;SDS011;43175;51.002;18.316;2024-01-30T01:42:49;19.90;;;8.70;;
57341;SDS011;43175;51.002;18.316;2024-01-30T01:45:14;21.40;;;9.00;;
57341;SDS011;43175;51.002;18.316;2024-01-30T01:47:41;17.50;;;8.20;;
57341;SDS011;43175;51.002;18.316;2024-01-30T01:50:07;18.90;;;8.50;;
57341;SDS011;43175;51.002;18.316;2024-01-30T01:52:32;18.50;;;8.10;;
57341;SDS011;43175;51.002;18.316;2024-01-30T01:54:58;22.50;;;8.50;;
57341;SDS011;43175;51.002;18.316;2024-01-30T01:57:23;20.10;;;8.50;;
57341;SDS011;43175;51.002;18.316;2024-01-30T01:59:49;21.40;;;8.30;;
57341;SDS011;43175;51.002;18.316;2024-01-30T02:02:14;18.50;;;8.20;;
57341;SDS011;43175;51.002;18.316;2024-01-30T02:04:42;19.50;;;8.60;;
57341;SDS011;43175;51.002;18.316;2024-01-30T02:07:08;20.70;;;8.70;;
57341;SDS011;43175;51.002;18.316;2024-01-30T02:09:34;19.10;;;9.10;;
57341;SDS011;43175;51.002;18.316;2024-01-30T02:11:59;20.40;;;8.10;;
57341;SDS011;43175;51.002;18.316;2024-01-30T02:14:25;20.60;;;9.20;;
57341;SDS011;43175;51.002;18.316;2024-01-30T02:16:51;18.10;;;8.60;;
57341;SDS011;43175;51.002;18.316;2024-01-30T02:19:16;20.00;;;8.60;;
57341;SDS011;43175;51.002;18.316;2024-01-30T02:21:41;18.70;;;8.20;;
57341;SDS011;43175;51.002;18.316;2024-01-30T02:24:07;21.10;;;8.60;;
57341;SDS011;43175;51.002;18.316;2024-01-30T02:26:33;20.60;;;8.30;;
57341;SDS011;43175;51.002;18.316;2024-01-30T02:28:58;20.50;;;9.00;;
57341;SDS011;43175;51.002;18.316;2024-01-30T02:31:24;19.60;;;8.80;;
57341;SDS011;43175;51.002;18.316;2024-01-30T02:33:50;21.50;;;9.30;;
57341;SDS011;43175;51.002;18.316;2024-01-30T02:36:15;21.90;;;9.70;;
57341;SDS011;43175;51.002;18.316;2024-01-30T02:38:41;24.70;;;9.70;;
57341;SDS011;43175;51.002;18.316;2024-01-30T02:41:06;22.20;;;10.00;;
57341;SDS011;43175;51.002;18.316;2024-01-30T02:43:32;21.80;;;9.20;;
57341;SDS011;43175;51.002;18.316;2024-01-30T02:45:57;24.30;;;9.70;;
57341;SDS011;43175;51.002;18.316;2024-01-30T02:48:25;19.40;;;9.10;;
57341;SDS011;43175;51.002;18.316;2024-01-30T02:50:50;20.20;;;8.80;;
57341;SDS011;43175;51.002;18.316;2024-01-30T02:53:16;20.10;;;9.30;;
57341;SDS011;43175;51.002;18.316;2024-01-30T02:55:41;23.50;;;9.80;;
57341;SDS011;43175;51.002;18.316;2024-01-30T02:58:06;21.50;;;9.80;;
57341;SDS011;43175;51.002;18.316;2024-01-30T03:00:32;21.60;;;9.70;;
57341;SDS011;43175;51.002;18.316;2024-01-30T03:02:57;23.20;;;10.10;;
57341;SDS011;43175;51.002;18.316;2024-01-30T03:05:23;21.90;;;9.90;;
57341;SDS011;43175;51.002;18.316;2024-01-30T03:07:48;21.80;;;10.30;;
57341;SDS011;43175;51.002;18.316;2024-01-30T03:10:14;20.50;;;9.60;;
57341;SDS011;43175;51.002;18.316;2024-01-30T03:12:39;22.30;;;9.70;;
57341;SDS011;43175;51.002;18.316;2024-01-30T03:15:05;27.40;;;11.20;;
57341;SDS011;43175;51.002;18.316;2024-01-30T03:17:31;24.70;;;10.80;;
57341;SDS011;43175;51.002;18.316;2024-01-30T03:19:56;23.40;;;9.80;;
57341;SDS011;43175;51.002;18.316;2024-01-30T03:22:22;22.40;;;10.00;;
57341;SDS011;43175;51.002;18.316;2024-01-30T03:24:47;22.90;;;10.70;;
57341;SDS011;43175;51.002;18.316;2024-01-30T03:27:13;23.00;;;9.70;;
57341;SDS011;43175;51.002;18.316;2024-01-30T03:29:39;20.90;;;10.50;;
57341;SDS011;43175;51.002;18.316;2024-01-30T03:32:04;23.80;;;10.70;;
57341;SDS011;43175;51.002;18.316;2024-01-30T03:34:30;22.30;;;10.30;;
57341;SDS011;43175;51.002;18.316;2024-01-30T03:36:56;23.90;;;10.10;;
57341;SDS011;43175;51.002;18.316;2024-01-30T03:39:21;23.10;;;10.50;;
57341;SDS011;43175;51.002;18.316;2024-01-30T03:41:47;22.80;;;10.60;;
57341;SDS011;43175;51.002;18.316;2024-01-30T03:44:12;24.60;;;11.00;;
57341;SDS011;43175;51.002;18.316;2024-01-30T03:46:37;22.80;;;10.20;;
57341;SDS011;43175;51.002;18.316;2024-01-30T03:49:03;26.00;;;11.50;;
57341;SDS011;43175;51.002;18.316;2024-01-30T03:51:29;26.30;;;11.00;;
57341;SDS011;43175;51.002;18.316;2024-01-30T03:53:54;25.60;;;11.70;;
57341;SDS011;43175;51.002;18.316;2024-01-30T03:56:20;22.90;;;11.20;;
57341;SDS011;43175;51.002;18.316;2024-01-30T03:58:45;26.20;;;12.00;;
57341;SDS011;43175;51.002;18.316;2024-01-30T04:01:14;26.40;;;12.30;;
57341;SDS011;43175;51.002;18.316;2024-01-30T04:03:40;26.80;;;11.70;;
57341;SDS011;43175;51.002;18.316;2024-01-30T04:06:06;26.70;;;11.90;;
57341;SDS011;43175;51.002;18.316;2024-01-30T04:08:31;26.50;;;12.00;;
57341;SDS011;43175;51.002;18.316;2024-01-30T04:10:56;27.70;;;12.30;;
57341;SDS011;43175;51.002;18.316;2024-01-30T04:13:22;26.80;;;12.20;;
57341;SDS011;43175;51.002;18.316;2024-01-30T04:15:47;25.50;;;10.80;;
57341;SDS011;43175;51.002;18.316;2024-01-30T04:18:13;25.60;;;11.20;;
57341;SDS011;43175;51.002;18.316;2024-01-30T04:20:38;26.90;;;10.70;;
57341;SDS011;43175;51.002;18.316;2024-01-30T04:23:04;22.40;;;10.10;;
57341;SDS011;43175;51.002;18.316;2024-01-30T04:25:29;23.40;;;10.30;;
57341;SDS011;43175;51.002;18.316;2024-01-30T04:27:55;29.00;;;12.50;;
57341;SDS011;43175;51.002;18.316;2024-01-30T04:30:20;27.40;;;11.30;;
57341;SDS011;43175;51.002;18.316;2024-01-30T04:32:46;25.20;;;11.50;;
57341;SDS011;43175;51.002;18.316;2024-01-30T04:35:11;25.40;;;11.20;;
57341;SDS011;43175;51.002;18.316;2024-01-30T04:37:37;23.70;;;10.60;;
57341;SDS011;43175;51.002;18.316;2024-01-30T04:40:02;25.50;;;11.90;;
57341;SDS011;43175;51.002;18.316;2024-01-30T04:42:28;26.70;;;11.80;;
57341;SDS011;43175;51.002;18.316;2024-01-30T04:44:54;24.90;;;11.40;;
57341;SDS011;43175;51.002;18.316;2024-01-30T04:47:19;27.00;;;12.50;;
57341;SDS011;43175;51.002;18.316;2024-01-30T04:49:45;29.60;;;12.80;;
57341;SDS011;43175;51.002;18.316;2024-01-30T04:52:11;32.30;;;13.80;;
57341;SDS011;43175;51.002;18.316;2024-01-30T04:54:36;28.40;;;12.20;;
57341;SDS011;43175;51.002;18.316;2024-01-30T04:57:02;25.60;;;11.60;;
57341;SDS011;43175;51.002;18.316;2024-01-30T04:59:27;26.70;;;11.80;;
57341;SDS011;43175;51.002;18.316;2024-01-30T05:01:53;23.60;;;10.50;;
57341;SDS011;43175;51.002;18.316;2024-01-30T05:04:19;24.80;;;10.10;;
57341;SDS011;43175;51.002;18.316;2024-01-30T05:06:44;21.90;;;9.40;;
57341;SDS011;43175;51.002;18.316;2024-01-30T05:09:10;21.50;;;9.90;;
57341;SDS011;43175;51.002;18.316;2024-01-30T05:11:39;23.90;;;10.30;;
57341;SDS011;43175;51.002;18.316;2024-01-30T05:14:05;21.00;;;9.50;;
57341;SDS011;43175;51.002;18.316;2024-01-30T05:16:30;22.90;;;10.20;;
57341;SDS011;43175;51.002;18.316;2024-01-30T05:18:56;21.00;;;9.60;;
57341;SDS011;43175;51.002;18.316;2024-01-30T05:21:21;23.70;;;9.90;;
57341;SDS011;43175;51.002;18.316;2024-01-30T05:23:47;21.90;;;9.70;;
57341;SDS011;43175;51.002;18.316;2024-01-30T05:26:13;21.80;;;9.50;;
57341;SDS011;43175;51.002;18.316;2024-01-30T05:28:38;22.80;;;9.80;;
57341;SDS011;43175;51.002;18.316;2024-01-30T05:31:03;23.00;;;9.90;;
57341;SDS011;43175;51.002;18.316;2024-01-30T05:33:29;23.00;;;10.00;;
57341;SDS011;43175;51.002;18.316;2024-01-30T05:35:54;24.30;;;10.40;;
57341;SDS011;43175;51.002;18.316;2024-01-30T05:38:20;22.60;;;10.20;;
57341;SDS011;43175;51.002;18.316;2024-01-30T05:40:45;22.90;;;11.00;;
57341;SDS011;43175;51.002;18.316;2024-01-30T05:43:11;22.80;;;10.00;;
57341;SDS011;43175;51.002;18.316;2024-01-30T05:45:37;23.30;;;10.50;;
57341;SDS011;43175;51.002;18.316;2024-01-30T05:48:03;25.00;;;10.40;;
57341;SDS011;43175;51.002;18.316;2024-01-30T05:50:29;23.10;;;10.30;;
57341;SDS011;43175;51.002;18.316;2024-01-30T05:52:55;24.40;;;10.80;;
57341;SDS011;43175;51.002;18.316;2024-01-30T05:55:20;24.90;;;11.10;;
57341;SDS011;43175;51.002;18.316;2024-01-30T05:57:46;26.50;;;11.60;;
57341;SDS011;43175;51.002;18.316;2024-01-30T06:00:12;23.50;;;11.10;;
57341;SDS011;43175;51.002;18.316;2024-01-30T06:02:38;24.70;;;10.90;;
57341;SDS011;43175;51.002;18.316;2024-01-30T06:05:03;28.30;;;11.70;;
57341;SDS011;43175;51.002;18.316;2024-01-30T06:07:29;25.60;;;11.50;;
57341;SDS011;43175;51.002;18.316;2024-01-30T06:09:54;25.40;;;11.60;;
57341;SDS011;43175;51.002;18.316;2024-01-30T06:12:20;25.60;;;11.40;;
57341;SDS011;43175;51.002;18.316;2024-01-30T06:14:46;22.70;;;10.30;;
57341;SDS011;43175;51.002;18.316;2024-01-30T06:17:12;25.10;;;11.40;;
57341;SDS011;43175;51.002;18.316;2024-01-30T06:19:39;26.00;;;11.40;;
57341;SDS011;43175;51.002;18.316;2024-01-30T06:22:05;24.20;;;11.10;;
57341;SDS011;43175;51.002;18.316;2024-01-30T06:24:30;23.50;;;11.00;;
57341;SDS011;43175;51.002;18.316;2024-01-30T06:26:56;25.40;;;11.80;;
57341;SDS011;43175;51.002;18.316;2024-01-30T06:29:22;28.60;;;12.00;;
57341;SDS011;43175;51.002;18.316;2024-01-30T06:31:50;23.80;;;11.40;;
57341;SDS011;43175;51.002;18.316;2024-01-30T06:34:15;31.10;;;12.50;;
57341;SDS011;43175;51.002;18.316;2024-01-30T06:36:41;26.60;;;11.60;;
57341;SDS011;43175;51.002;18.316;2024-01-30T06:39:06;26.10;;;12.10;;
57341;SDS011;43175;51.002;18.316;2024-01-30T06:41:32;24.60;;;11.90;;
57341;SDS011;43175;51.002;18.316;2024-01-30T06:43:58;24.90;;;11.50;;
57341;SDS011;43175;51.002;18.316;2024-01-30T06:46:23;24.20;;;11.20;;
57341;SDS011;43175;51.002;18.316;2024-01-30T06:48:49;23.70;;;10.50;;
57341;SDS011;43175;51.002;18.316;2024-01-30T06:51:14;23.80;;;11.40;;
57341;SDS011;43175;51.002;18.316;2024-01-30T06:53:39;24.10;;;11.00;;
57341;SDS011;43175;51.002;18.316;2024-01-30T06:56:05;26.00;;;11.90;;
57341;SDS011;43175;51.002;18.316;2024-01-30T06:58:31;25.30;;;11.70;;
57341;SDS011;43175;51.002;18.316;2024-01-30T07:00:57;27.10;;;11.90;;
57341;SDS011;43175;51.002;18.316;2024-01-30T07:03:23;26.30;;;11.70;;
57341;SDS011;43175;51.002;18.316;2024-01-30T07:05:49;28.90;;;12.00;;
57341;SDS011;43175;51.002;18.316;2024-01-30T07:08:15;24.70;;;11.40;;
57341;SDS011;43175;51.002;18.316;2024-01-30T07:10:43;24.60;;;12.60;;
57341;SDS011;43175;51.002;18.316;2024-01-30T07:13:08;24.40;;;11.60;;
57341;SDS011;43175;51.002;18.316;2024-01-30T07:15:35;25.50;;;11.40;;
57341;SDS011;43175;51.002;18.316;2024-01-30T07:18:02;23.70;;;11.20;;
57341;SDS011;43175;51.002;18.316;2024-01-30T07:20:27;25.50;;;12.50;;
57341;SDS011;43175;51.002;18.316;2024-01-30T07:22:53;27.40;;;11.70;;
57341;SDS011;43175;51.002;18.316;2024-01-30T07:25:18;25.10;;;11.30;;
57341;SDS011;43175;51.002;18.316;2024-01-30T07:27:44;23.90;;;11.50;;
57341;SDS011;43175;51.002;18.316;2024-01-30T07:30:09;26.30;;;11.70;;
57341;SDS011;43175;51.002;18.316;2024-01-30T07:32:35;25.80;;;11.90;;
57341;SDS011;43175;51.002;18.316;2024-01-30T07:35:00;24.90;;;11.60;;
57341;SDS011;43175;51.002;18.316;2024-01-30T07:37:26;21.70;;;10.10;;
57341;SDS011;43175;51.002;18.316;2024-01-30T07:39:52;22.80;;;11.00;;
57341;SDS011;43175;51.002;18.316;2024-01-30T07:42:17;25.10;;;11.30;;
57341;SDS011;43175;51.002;18.316;2024-01-30T07:44:43;25.60;;;11.60;;
57341;SDS011;43175;51.002;18.316;2024-01-30T07:47:08;24.30;;;11.50;;
57341;SDS011;43175;51.002;18.316;2024-01-30T07:49:34;27.40;;;11.20;;
57341;SDS011;43175;51.002;18.316;2024-01-30T07:52:00;23.00;;;11.10;;
57341;SDS011;43175;51.002;18.316;2024-01-30T07:54:25;22.20;;;10.30;;
57341;SDS011;43175;51.002;18.316;2024-01-30T07:56:51;22.90;;;10.90;;
57341;SDS011;43175;51.002;18.316;2024-01-30T07:59:16;24.60;;;11.50;;
57341;SDS011;43175;51.002;18.316;2024-01-30T08:01:42;23.00;;;10.00;;
57341;SDS011;43175;51.002;18.316;2024-01-30T08:04:08;21.20;;;10.40;;
57341;SDS011;43175;51.002;18.316;2024-01-30T08:06:33;24.10;;;11.00;;
57341;SDS011;43175;51.002;18.316;2024-01-30T08:08:59;24.90;;;11.00;;
57341;SDS011;43175;51.002;18.316;2024-01-30T08:11:25;24.90;;;10.90;;
57341;SDS011;43175;51.002;18.316;2024-01-30T08:13:55;22.80;;;11.00;;
57341;SDS011;43175;51.002;18.316;2024-01-30T08:16:20;21.90;;;10.10;;
57341;SDS011;43175;51.002;18.316;2024-01-30T08:18:46;23.10;;;10.60;;
57341;SDS011;43175;51.002;18.316;2024-01-30T08:21:11;21.90;;;10.90;;
57341;SDS011;43175;51.002;18.316;2024-01-30T08:23:40;24.50;;;10.60;;
57341;SDS011;43175;51.002;18.316;2024-01-30T08:26:05;23.10;;;10.30;;
57341;SDS011;43175;51.002;18.316;2024-01-30T08:28:31;24.50;;;10.80;;
57341;SDS011;43175;51.002;18.316;2024-01-30T08:30:56;25.00;;;11.30;;
57341;SDS011;43175;51.002;18.316;2024-01-30T08:33:22;24.80;;;11.00;;
57341;SDS011;43175;51.002;18.316;2024-01-30T08:35:48;22.60;;;10.70;;
57341;SDS011;43175;51.002;18.316;2024-01-30T08:38:13;22.20;;;10.40;;
57341;SDS011;43175;51.002;18.316;2024-01-30T08:40:39;21.30;;;10.20;;
57341;SDS011;43175;51.002;18.316;2024-01-30T08:43:04;21.00;;;9.70;;
57341;SDS011;43175;51.002;18.316;2024-01-30T08:45:30;23.20;;;11.50;;
57341;SDS011;43175;51.002;18.316;2024-01-30T08:47:56;23.90;;;10.90;;
57341;SDS011;43175;51.002;18.316;2024-01-30T08:50:21;25.10;;;10.90;;
57341;SDS011;43175;51.002;18.316;2024-01-30T08:52:47;22.20;;;10.30;;
57341;SDS011;43175;51.002;18.316;2024-01-30T08:55:13;24.00;;;10.80;;
57341;SDS011;43175;51.002;18.316;2024-01-30T08:57:38;22.40;;;10.70;;
57341;SDS011;43175;51.002;18.316;2024-01-30T09:00:04;20.80;;;10.40;;
57341;SDS011;43175;51.002;18.316;2024-01-30T09:02:32;24.40;;;10.40;;
57341;SDS011;43175;51.002;18.316;2024-01-30T09:04:57;21.80;;;10.30;;
57341;SDS011;43175;51.002;18.316;2024-01-30T09:07:23;21.70;;;9.80;;
57341;SDS011;43175;51.002;18.316;2024-01-30T09:09:49;22.90;;;9.90;;
57341;SDS011;43175;51.002;18.316;2024-01-30T09:12:14;22.40;;;9.40;;
57341;SDS011;43175;51.002;18.316;2024-01-30T09:14:40;20.30;;;9.70;;
57341;SDS011;43175;51.002;18.316;2024-01-30T09:17:06;20.10;;;9.60;;
57341;SDS011;43175;51.002;18.316;2024-01-30T09:19:32;20.80;;;9.70;;
57341;SDS011;43175;51.002;18.316;2024-01-30T09:21:57;23.50;;;10.90;;
57341;SDS011;43175;51.002;18.316;2024-01-30T09:24:23;21.60;;;10.20;;
57341;SDS011;43175;51.002;18.316;2024-01-30T09:26:49;22.80;;;10.30;;
57341;SDS011;43175;51.002;18.316;2024-01-30T09:29:15;21.10;;;9.60;;
57341;SDS011;43175;51.002;18.316;2024-01-30T09:31:42;21.60;;;9.90;;
57341;SDS011;43175;51.002;18.316;2024-01-30T09:34:08;22.10;;;9.70;;
57341;SDS011;43175;51.002;18.316;2024-01-30T09:36:34;23.30;;;10.00;;
57341;SDS011;43175;51.002;18.316;2024-01-30T09:38:59;19.10;;;8.80;;
57341;SDS011;43175;51.002;18.316;2024-01-30T09:41:26;20.80;;;9.60;;
57341;SDS011;43175;51.002;18.316;2024-01-30T09:43:53;20.10;;;9.00;;
57341;SDS011;43175;51.002;18.316;2024-01-30T09:46:19;21.90;;;9.40;;
57341;SDS011;43175;51.002;18.316;2024-01-30T09:48:46;20.40;;;9.60;;
57341;SDS011;43175;51.002;18.316;2024-01-30T09:51:14;20.50;;;9.50;;
57341;SDS011;43175;51.002;18.316;2024-01-30T09:53:40;19.80;;;9.40;;
57341;SDS011;43175;51.002;18.316;2024-01-30T09:56:08;21.00;;;9.50;;
57341;SDS011;43175;51.002;18.316;2024-01-30T09:58:33;19.70;;;9.20;;
57341;SDS011;43175;51.002;18.316;2024-01-30T10:00:59;19.90;;;9.50;;
57341;SDS011;43175;51.002;18.316;2024-01-30T10:03:24;21.30;;;9.70;;
57341;SDS011;43175;51.002;18.316;2024-01-30T10:05:51;20.30;;;9.10;;
57341;SDS011;43175;51.002;18.316;2024-01-30T10:08:19;20.90;;;9.90;;
57341;SDS011;43175;51.002;18.316;2024-01-30T10:10:46;18.80;;;9.50;;
57341;SDS011;43175;51.002;18.316;2024-01-30T10:13:11;20.20;;;9.60;;
57341;SDS011;43175;51.002;18.316;2024-01-30T10:15:37;20.80;;;9.10;;
57341;SDS011;43175;51.002;18.316;2024-01-30T10:18:08;18.60;;;9.00;;
57341;SDS011;43175;51.002;18.316;2024-01-30T10:20:35;17.60;;;8.50;;
57341;SDS011;43175;51.002;18.316;2024-01-30T10:23:00;20.60;;;8.80;;
57341;SDS011;43175;51.002;18.316;2024-01-30T10:25:26;19.90;;;8.60;;
57341;SDS011;43175;51.002;18.316;2024-01-30T10:27:52;18.20;;;8.70;;
57341;SDS011;43175;51.002;18.316;2024-01-30T10:30:18;18.90;;;8.60;;
57341;SDS011;43175;51.002;18.316;2024-01-30T10:32:44;17.70;;;8.20;;
57341;SDS011;43175;51.002;18.316;2024-01-30T10:35:09;20.10;;;8.80;;
57341;SDS011;43175;51.002;18.316;2024-01-30T10:37:35;19.40;;;9.30;;
57341;SDS011;43175;51.002;18.316;2024-01-30T10:40:02;19.20;;;8.80;;
57341;SDS011;43175;51.002;18.316;2024-01-30T10:42:30;18.80;;;8.10;;
57341;SDS011;43175;51.002;18.316;2024-01-30T10:45:01;20.90;;;9.00;;
57341;SDS011;43175;51.002;18.316;2024-01-30T10:47:29;18.00;;;8.00;;
57341;SDS011;43175;51.002;18.316;2024-01-30T10:49:55;20.40;;;7.90;;
57341;SDS011;43175;51.002;18.316;2024-01-30T10:52:21;18.10;;;7.70;;
57341;SDS011;43175;51.002;18.316;2024-01-30T10:54:47;16.50;;;7.50;;
57341;SDS011;43175;51.002;18.316;2024-01-30T10:57:14;16.70;;;6.90;;
57341;SDS011;43175;51.002;18.316;2024-01-30T10:59:41;15.30;;;7.00;;
57341;SDS011;43175;51.002;18.316;2024-01-30T11:02:08;16.50;;;7.10;;
57341;SDS011;43175;51.002;18.316;2024-01-30T11:04:37;17.20;;;7.00;;
57341;SDS011;43175;51.002;18.316;2024-01-30T11:07:16;17.40;;;7.10;;
57341;SDS011;43175;51.002;18.316;2024-01-30T11:09:48;15.80;;;7.00;;
57341;SDS011;43175;51.002;18.316;2024-01-30T11:12:14;16.50;;;7.20;;
57341;SDS011;43175;51.002;18.316;2024-01-30T11:14:40;15.10;;;7.40;;
57341;SDS011;43175;51.002;18.316;2024-01-30T11:17:05;21.50;;;7.30;;
57341;SDS011;43175;51.002;18.316;2024-01-30T11:19:31;14.90;;;6.90;;
57341;SDS011;43175;51.002;18.316;2024-01-30T11:21:57;17.00;;;6.80;;
57341;SDS011;43175;51.002;18.316;2024-01-30T11:24:23;16.70;;;7.10;;
57341;SDS011;43175;51.002;18.316;2024-01-30T11:26:58;16.60;;;7.00;;
57341;SDS011;43175;51.002;18.316;2024-01-30T11:29:24;17.60;;;6.80;;
57341;SDS011;43175;51.002;18.316;2024-01-30T11:31:57;16.50;;;7.00;;
57341;SDS011;43175;51.002;18.316;2024-01-30T11:36:52;14.70;;;6.20;;
57341;SDS011;43175;51.002;18.316;2024-01-30T11:39:23;14.90;;;6.20;;
57341;SDS011;43175;51.002;18.316;2024-01-30T11:41:50;16.50;;;6.20;;
57341;SDS011;43175;51.002;18.316;2024-01-30T11:44:17;15.40;;;6.70;;
57341;SDS011;43175;51.002;18.316;2024-01-30T11:46:43;18.30;;;6.90;;
57341;SDS011;43175;51.002;18.316;2024-01-30T11:49:08;16.20;;;7.00;;
57341;SDS011;43175;51.002;18.316;2024-01-30T11:51:34;15.10;;;6.60;;
57341;SDS011;43175;51.002;18.316;2024-01-30T11:53:59;16.70;;;6.50;;
57341;SDS011;43175;51.002;18.316;2024-01-30T11:56:25;14.50;;;6.10;;
57341;SDS011;43175;51.002;18.316;2024-01-30T11:58:52;14.50;;;6.10;;
57341;SDS011;43175;51.002;18.316;2024-01-30T12:01:17;14.40;;;6.40;;
57341;SDS011;43175;51.002;18.316;2024-01-30T12:03:48;14.00;;;6.20;;
57341;SDS011;43175;51.002;18.316;2024-01-30T12:06:15;14.30;;;6.50;;
57341;SDS011;43175;51.002;18.316;2024-01-30T12:08:40;16.00;;;6.80;;
57341;SDS011;43175;51.002;18.316;2024-01-30T12:11:06;15.90;;;6.70;;
57341;SDS011;43175;51.002;18.316;2024-01-30T12:13:32;14.60;;;6.30;;
57341;SDS011;43175;51.002;18.316;2024-01-30T12:15:58;16.50;;;7.00;;
57341;SDS011;43175;51.002;18.316;2024-01-30T12:18:24;13.20;;;5.80;;
57341;SDS011;43175;51.002;18.316;2024-01-30T12:20:59;15.90;;;6.60;;
57341;SDS011;43175;51.002;18.316;2024-01-30T12:23:25;15.20;;;6.80;;
57341;SDS011;43175;51.002;18.316;2024-01-30T12:25:51;17.40;;;7.40;;
57341;SDS011;43175;51.002;18.316;2024-01-30T12:28:17;16.20;;;7.30;;
57341;SDS011;43175;51.002;18.316;2024-01-30T12:30:43;17.70;;;8.10;;
57341;SDS011;43175;51.002;18.316;2024-01-30T12:33:08;15.00;;;6.50;;
57341;SDS011;43175;51.002;18.316;2024-01-30T12:35:35;14.50;;;6.80;;
57341;SDS011;43175;51.002;18.316;2024-01-30T12:38:01;16.50;;;7.10;;
57341;SDS011;43175;51.002;18.316;2024-01-30T12:40:27;15.00;;;6.10;;
57341;SDS011;43175;51.002;18.316;2024-01-30T12:42:53;14.50;;;6.40;;
57341;SDS011;43175;51.002;18.316;2024-01-30T12:45:19;15.30;;;5.60;;
57341;SDS011;43175;51.002;18.316;2024-01-30T12:47:47;16.50;;;6.80;;
57341;SDS011;43175;51.002;18.316;2024-01-30T12:50:13;20.40;;;8.80;;
57341;SDS011;43175;51.002;18.316;2024-01-30T12:52:41;74.40;;;29.60;;
57341;SDS011;43175;51.002;18.316;2024-01-30T12:55:06;25.70;;;10.80;;
57341;SDS011;43175;51.002;18.316;2024-01-30T12:57:32;14.60;;;6.40;;
57341;SDS011;43175;51.002;18.316;2024-01-30T12:59:58;15.00;;;5.70;;
57341;SDS011;43175;51.002;18.316;2024-01-30T13:02:23;15.40;;;6.60;;
57341;SDS011;43175;51.002;18.316;2024-01-30T13:04:49;14.20;;;5.60;;
57341;SDS011;43175;51.002;18.316;2024-01-30T13:07:15;15.50;;;7.20;;
57341;SDS011;43175;51.002;18.316;2024-01-30T13:09:40;13.80;;;5.80;;
57341;SDS011;43175;51.002;18.316;2024-01-30T13:12:06;16.10;;;6.00;;
57341;SDS011;43175;51.002;18.316;2024-01-30T13:14:32;14.40;;;6.30;;
57341;SDS011;43175;51.002;18.316;2024-01-30T13:16:57;14.50;;;5.70;;
57341;SDS011;43175;51.002;18.316;2024-01-30T13:19:23;14.40;;;6.80;;
57341;SDS011;43175;51.002;18.316;2024-01-30T13:21:48;13.80;;;6.10;;
57341;SDS011;43175;51.002;18.316;2024-01-30T13:24:14;14.90;;;7.40;;
57341;SDS011;43175;51.002;18.316;2024-01-30T13:26:40;17.20;;;7.20;;
57341;SDS011;43175;51.002;18.316;2024-01-30T13:29:05;13.50;;;6.20;;
57341;SDS011;43175;51.002;18.316;2024-01-30T13:31:31;14.40;;;6.30;;
57341;SDS011;43175;51.002;18.316;2024-01-30T13:33:57;15.60;;;8.20;;
57341;SDS011;43175;51.002;18.316;2024-01-30T13:36:22;25.70;;;15.30;;
57341;SDS011;43175;51.002;18.316;2024-01-30T13:38:48;32.80;;;19.40;;
57341;SDS011;43175;51.002;18.316;2024-01-30T13:41:13;41.20;;;25.70;;
57341;SDS011;43175;51.002;18.316;2024-01-30T13:43:39;35.80;;;23.40;;
57341;SDS011;43175;51.002;18.316;2024-01-30T13:46:04;29.80;;;19.00;;
57341;SDS011;43175;51.002;18.316;2024-01-30T13:48:30;21.10;;;11.60;;
57341;SDS011;43175;51.002;18.316;2024-01-30T13:50:56;22.90;;;12.80;;
57341;SDS011;43175;51.002;18.316;2024-01-30T13:53:21;17.30;;;9.20;;
57341;SDS011;43175;51.002;18.316;2024-01-30T13:55:47;16.40;;;7.60;;
57341;SDS011;43175;51.002;18.316;2024-01-30T13:58:12;14.40;;;6.60;;
57341;SDS011;43175;51.002;18.316;2024-01-30T14:00:38;14.10;;;6.30;;
57341;SDS011;43175;51.002;18.316;2024-01-30T14:03:04;14.60;;;6.60;;
57341;SDS011;43175;51.002;18.316;2024-01-30T14:05:30;16.90;;;6.60;;
57341;SDS011;43175;51.002;18.316;2024-01-30T14:07:56;16.80;;;7.00;;
57341;SDS011;43175;51.002;18.316;2024-01-30T14:10:22;14.70;;;6.60;;